createdAt,value
2023-01-13T00:00:13.890Z,0.88
2023-01-13T00:02:18.667Z,2.15
2023-01-13T00:04:20.390Z,1.45
2023-01-13T00:06:27.147Z,0.45
2023-01-13T00:08:29.554Z,1.05
2023-01-13T00:10:31.455Z,1.00
2023-01-13T00:12:33.337Z,0.85
2023-01-13T00:14:36.888Z,0.80
2023-01-13T00:16:38.796Z,0.95
2023-01-13T00:18:40.711Z,0.60
2023-01-13T00:20:45.645Z,1.17
2023-01-13T00:22:47.217Z,0.73
2023-01-13T00:24:49.039Z,1.45
2023-01-13T00:26:51.165Z,2.05
2023-01-13T00:28:59.760Z,0.75
2023-01-13T00:31:08.595Z,1.20
2023-01-13T00:33:10.374Z,0.93
2023-01-13T00:35:12.076Z,0.73
2023-01-13T00:37:15.073Z,0.93
2023-01-13T00:39:19.276Z,2.28
2023-01-13T00:41:23.727Z,0.70
2023-01-13T00:43:26.911Z,1.70
2023-01-13T00:45:28.669Z,1.25
2023-01-13T00:47:30.494Z,1.30
2023-01-13T00:49:32.273Z,0.80
2023-01-13T00:51:35.189Z,1.95
2023-01-13T00:53:43.300Z,1.38
2023-01-13T00:55:45.130Z,2.05
2023-01-13T00:57:46.842Z,1.38
2023-01-13T00:59:49.632Z,1.50
2023-01-13T01:01:51.829Z,1.25
2023-01-13T01:03:54.757Z,2.28
2023-01-13T01:05:58.602Z,0.90
2023-01-13T01:08:00.367Z,1.05
2023-01-13T01:10:02.186Z,1.65
2023-01-13T01:12:06.281Z,1.00
2023-01-13T01:14:11.327Z,1.42
2023-01-13T01:16:16.236Z,1.23
2023-01-13T01:18:18.050Z,1.10
2023-01-13T01:20:20.082Z,1.20
2023-01-13T01:22:21.955Z,1.02
2023-01-13T01:24:23.811Z,0.90
2023-01-13T01:26:29.936Z,0.98
2023-01-13T01:28:32.396Z,0.75
2023-01-13T01:30:34.458Z,0.95
2023-01-13T01:32:36.206Z,1.02
2023-01-13T01:34:39.304Z,0.93
2023-01-13T01:36:43.582Z,0.95
2023-01-13T01:38:46.216Z,2.95
2023-01-13T01:40:48.040Z,2.45
2023-01-13T01:43:09.350Z,1.08
2023-01-13T01:45:15.931Z,1.00
2023-01-13T01:47:18.747Z,0.80
2023-01-13T01:49:36.242Z,1.75
2023-01-13T01:51:52.575Z,1.42
2023-01-13T01:53:57.089Z,1.77
2023-01-13T01:56:00.039Z,1.00
2023-01-13T01:58:09.283Z,0.75
2023-01-13T02:00:11.780Z,1.90
2023-01-13T02:02:17.238Z,1.48
2023-01-13T02:04:25.988Z,1.08
2023-01-13T02:06:30.194Z,1.10
2023-01-13T02:08:32.793Z,1.90
2023-01-13T02:10:34.456Z,0.80
2023-01-13T02:12:36.992Z,1.02
2023-01-13T02:14:40.078Z,0.50
2023-01-13T02:17:12.370Z,1.35
2023-01-13T02:20:04.813Z,1.00
2023-01-13T02:22:29.170Z,1.92
2023-01-13T02:25:07.576Z,2.50
2023-01-13T02:27:32.569Z,0.82
2023-01-13T02:30:02.381Z,1.23
2023-01-13T02:32:19.094Z,1.33
2023-01-13T02:34:33.339Z,1.17
2023-01-13T02:36:53.806Z,1.33
2023-01-13T02:39:03.115Z,1.77
2023-01-13T02:41:54.020Z,1.40
2023-01-13T02:44:06.967Z,1.30
2023-01-13T02:46:15.662Z,0.98
2023-01-13T02:48:20.887Z,1.10
2023-01-13T02:50:32.457Z,1.88
2023-01-13T02:52:54.939Z,2.78
2023-01-13T02:55:01.570Z,1.02
2023-01-13T02:57:07.089Z,1.92
2023-01-13T02:59:10.525Z,1.75
2023-01-13T03:01:12.283Z,1.85
2023-01-13T03:03:14.340Z,0.47
2023-01-13T03:05:19.809Z,1.25
2023-01-13T03:07:39.691Z,2.08
2023-01-13T03:09:50.516Z,1.38
2023-01-13T03:12:04.357Z,1.92
2023-01-13T03:14:21.754Z,0.77
2023-01-13T03:16:52.334Z,0.98
2023-01-13T03:19:15.293Z,1.27
2023-01-13T03:21:24.748Z,0.98
2023-01-13T03:23:36.929Z,1.30
2023-01-13T03:25:49.636Z,1.30
2023-01-13T03:27:57.344Z,1.20
2023-01-13T03:29:59.016Z,2.15
2023-01-13T03:32:13.943Z,0.82
2023-01-13T03:34:21.911Z,0.88
2023-01-13T03:36:30.520Z,1.05
2023-01-13T03:38:35.243Z,1.08
2023-01-13T03:40:44.438Z,1.10
2023-01-13T03:43:10.815Z,0.70
2023-01-13T03:45:16.623Z,0.82
2023-01-13T03:47:18.369Z,0.98
2023-01-13T03:49:24.738Z,0.70
2023-01-13T03:51:29.295Z,0.77
2023-01-13T03:53:37.254Z,1.90
2023-01-13T03:55:47.711Z,1.13
2023-01-13T03:57:52.126Z,0.85
2023-01-13T03:59:57.698Z,1.65
2023-01-13T04:02:05.107Z,0.95
2023-01-13T04:04:28.084Z,0.70
2023-01-13T04:06:56.090Z,0.82
2023-01-13T04:09:21.790Z,1.17
2023-01-13T04:11:38.207Z,1.35
2023-01-13T04:13:43.313Z,1.02
2023-01-13T04:15:46.677Z,1.48
2023-01-13T04:17:48.356Z,0.40
2023-01-13T04:19:49.991Z,0.22
2023-01-13T04:21:53.921Z,1.15
2023-01-13T04:23:55.742Z,1.02
2023-01-13T04:25:57.415Z,0.50
2023-01-13T04:27:58.996Z,0.85
2023-01-13T04:30:00.612Z,2.17
2023-01-13T04:32:02.180Z,1.67
2023-01-13T04:34:03.842Z,0.30
2023-01-13T04:36:06.168Z,0.85
2023-01-13T04:38:11.169Z,0.88
2023-01-13T04:40:13.009Z,0.98
2023-01-13T04:42:14.552Z,1.45
2023-01-13T04:44:16.288Z,1.80
2023-01-13T04:46:18.124Z,1.08
2023-01-13T04:48:22.679Z,2.38
2023-01-13T04:50:24.599Z,0.32
2023-01-13T04:52:26.444Z,0.45
2023-01-13T04:54:29.119Z,1.08
2023-01-13T04:56:30.883Z,0.60
2023-01-13T04:58:32.420Z,1.50
2023-01-13T05:00:34.478Z,0.38
2023-01-13T05:02:36.032Z,1.00
2023-01-13T05:04:37.449Z,0.80
2023-01-13T05:06:39.198Z,0.95
2023-01-13T05:08:43.733Z,1.38
2023-01-13T05:10:45.479Z,0.30
2023-01-13T05:13:05.388Z,0.85
2023-01-13T05:15:26.288Z,1.75
2023-01-13T05:17:30.297Z,0.88
2023-01-13T05:19:34.890Z,0.52
2023-01-13T05:21:55.074Z,0.50
2023-01-13T05:24:15.214Z,0.90
2023-01-13T05:26:16.753Z,0.52
2023-01-13T05:28:18.427Z,0.43
2023-01-13T05:30:26.932Z,1.70
2023-01-13T05:32:28.691Z,0.75
2023-01-13T05:34:32.219Z,0.38
2023-01-13T05:36:34.283Z,0.30
2023-01-13T05:38:35.798Z,0.45
2023-01-13T05:41:00.671Z,0.77
2023-01-13T05:43:22.056Z,0.50
2023-01-13T05:45:24.441Z,0.93
2023-01-13T05:47:26.306Z,1.38
2023-01-13T05:49:27.778Z,0.43
2023-01-13T05:51:29.442Z,0.20
2023-01-13T05:53:31.555Z,1.05
2023-01-13T05:55:33.211Z,1.35
2023-01-13T05:57:34.969Z,1.38
2023-01-13T05:59:36.642Z,0.32
2023-01-13T06:01:38.361Z,2.10
2023-01-13T06:03:41.019Z,1.77
2023-01-13T06:05:47.157Z,1.90
2023-01-13T06:07:48.931Z,0.88
2023-01-13T06:09:50.412Z,1.98
2023-01-13T06:11:52.501Z,0.70
2023-01-13T06:13:56.460Z,0.65
2023-01-13T06:15:59.515Z,1.48
2023-01-13T06:18:05.129Z,0.77
2023-01-13T06:20:09.029Z,0.63
2023-01-13T06:22:39.891Z,0.77
2023-01-13T06:24:41.799Z,0.95
2023-01-13T06:26:50.712Z,2.00
2023-01-13T06:28:52.305Z,1.48
2023-01-13T06:31:02.991Z,1.33
2023-01-13T06:33:11.082Z,1.13
2023-01-13T06:35:18.040Z,1.02
2023-01-13T06:37:23.412Z,0.30
2023-01-13T06:39:29.086Z,1.10
2023-01-13T06:41:51.788Z,2.47
2023-01-13T06:43:53.483Z,1.33
2023-01-13T06:45:56.428Z,1.17
2023-01-13T06:47:59.952Z,0.93
2023-01-13T06:50:01.576Z,0.80
2023-01-13T06:52:03.281Z,1.70
2023-01-13T06:54:05.364Z,0.90
2023-01-13T06:56:11.050Z,1.63
2023-01-13T06:58:12.651Z,1.67
2023-01-13T07:00:18.063Z,0.95
2023-01-13T07:02:19.701Z,0.93
2023-01-13T07:04:28.710Z,1.30
2023-01-13T07:06:30.632Z,1.40
2023-01-13T07:08:32.244Z,0.93
2023-01-13T07:10:34.946Z,2.38
2023-01-13T07:13:01.180Z,1.98
2023-01-13T07:15:21.646Z,1.40
2023-01-13T07:17:25.523Z,0.40
2023-01-13T07:19:27.270Z,1.23
2023-01-13T07:21:28.929Z,1.10
2023-01-13T07:23:32.885Z,1.90
2023-01-13T07:25:37.369Z,1.58
2023-01-13T07:27:38.937Z,1.23
2023-01-13T07:29:40.702Z,1.80
2023-01-13T07:31:42.646Z,1.05
2023-01-13T07:33:44.801Z,1.30
2023-01-13T07:35:47.588Z,0.75
2023-01-13T07:37:49.247Z,0.93
2023-01-13T07:39:50.804Z,1.30
2023-01-13T07:42:11.245Z,1.10
2023-01-13T07:44:14.335Z,0.85
2023-01-13T07:46:16.197Z,1.27
2023-01-13T07:48:17.847Z,1.33
2023-01-13T07:50:21.066Z,0.75
2023-01-13T07:52:22.727Z,1.50
2023-01-13T07:54:39.071Z,0.98
2023-01-13T07:56:44.348Z,1.50
2023-01-13T07:58:50.473Z,1.00
2023-01-13T08:00:52.327Z,3.08
2023-01-13T08:02:54.090Z,1.52
2023-01-13T08:04:55.671Z,1.60
2023-01-13T08:06:57.193Z,0.98
2023-01-13T08:09:01.152Z,0.93
2023-01-13T08:11:08.261Z,1.00
2023-01-13T08:13:19.823Z,0.73
2023-01-13T08:15:21.531Z,1.90
2023-01-13T08:17:23.219Z,1.88
2023-01-13T08:19:24.930Z,1.38
2023-01-13T08:21:29.064Z,1.63
2023-01-13T08:23:33.408Z,0.70
2023-01-13T08:25:35.346Z,1.55
2023-01-13T08:27:36.782Z,1.50
2023-01-13T08:29:38.468Z,2.85
2023-01-13T08:31:40.029Z,1.30
2023-01-13T08:33:47.689Z,1.80
2023-01-13T08:35:53.231Z,1.48
2023-01-13T08:37:54.869Z,1.50
2023-01-13T08:39:56.475Z,1.20
2023-01-13T08:41:58.799Z,2.30
2023-01-13T08:44:00.524Z,0.75
2023-01-13T08:46:04.560Z,0.90
2023-01-13T08:48:06.457Z,2.10
2023-01-13T08:50:10.843Z,1.80
2023-01-13T08:52:12.558Z,2.97
2023-01-13T08:54:14.628Z,0.85
2023-01-13T08:56:17.207Z,1.10
2023-01-13T08:58:21.321Z,1.75
2023-01-13T09:00:23.125Z,2.80
2023-01-13T09:02:25.687Z,2.55
2023-01-13T09:04:29.062Z,2.28
2023-01-13T09:06:30.740Z,1.50
2023-01-13T09:08:32.201Z,0.70
2023-01-13T09:10:35.638Z,1.67
2023-01-13T09:12:55.825Z,1.83
2023-01-13T09:14:57.807Z,2.45
2023-01-13T09:17:02.517Z,1.23
2023-01-13T09:19:03.979Z,2.90
2023-01-13T09:21:05.967Z,1.58
2023-01-13T09:23:11.451Z,0.80
2023-01-13T09:25:13.421Z,1.15
2023-01-13T09:27:15.547Z,1.48
2023-01-13T09:29:20.785Z,1.55
2023-01-13T09:31:22.472Z,0.45
2023-01-13T09:33:42.665Z,3.35
2023-01-13T09:35:44.503Z,0.25
2023-01-13T09:37:46.039Z,1.08
2023-01-13T09:39:50.680Z,0.70
2023-01-13T09:42:15.418Z,0.85
2023-01-13T09:44:24.578Z,0.40
2023-01-13T09:46:56.641Z,1.60
2023-01-13T09:48:59.500Z,0.50
2023-01-13T09:51:16.927Z,0.80
2023-01-13T09:53:25.679Z,0.90
2023-01-13T09:55:34.134Z,0.60
2023-01-13T09:57:38.473Z,0.80
2023-01-13T09:59:40.475Z,0.70
2023-01-13T10:01:59.477Z,1.25
2023-01-13T10:04:13.710Z,0.47
2023-01-13T10:06:33.466Z,0.90
2023-01-13T10:08:40.125Z,0.30
2023-01-13T10:10:55.281Z,0.55
2023-01-13T10:13:15.180Z,1.88
2023-01-13T10:15:23.134Z,0.63
2023-01-13T10:17:32.263Z,2.08
2023-01-13T10:19:38.467Z,0.35
2023-01-13T10:21:59.249Z,0.57
2023-01-13T10:24:14.562Z,0.30
2023-01-13T10:26:16.176Z,0.50
2023-01-13T10:28:23.848Z,0.57
2023-01-13T10:30:31.624Z,0.65
2023-01-13T10:32:33.369Z,2.22
2023-01-13T10:34:54.284Z,2.20
2023-01-13T10:37:09.116Z,2.75
2023-01-13T10:39:16.133Z,3.10
2023-01-13T10:41:23.775Z,2.95
2023-01-13T10:43:26.352Z,4.15
2023-01-13T10:45:27.869Z,4.45
2023-01-13T10:47:32.406Z,5.68
2023-01-13T10:49:36.974Z,6.57
2023-01-13T10:51:38.569Z,3.92
2023-01-13T10:54:12.640Z,6.47
2023-01-13T10:56:18.094Z,6.80
2023-01-13T10:58:22.194Z,11.57
2023-01-13T11:00:36.967Z,13.55
2023-01-13T11:02:39.115Z,9.90
2023-01-13T11:04:46.984Z,7.85
2023-01-13T11:06:51.780Z,10.35
2023-01-13T11:08:55.488Z,13.02
2023-01-13T11:10:59.286Z,6.90
2023-01-13T11:13:30.692Z,8.80
2023-01-13T11:15:46.999Z,5.63
2023-01-13T11:18:00.561Z,6.38
2023-01-13T11:20:11.161Z,7.18
2023-01-13T11:22:20.708Z,6.75
2023-01-13T11:24:36.384Z,10.75
2023-01-13T11:26:47.901Z,8.32
2023-01-13T11:29:00.879Z,8.85
2023-01-13T11:31:13.182Z,6.90
2023-01-13T11:33:14.897Z,5.03
2023-01-13T11:35:19.504Z,4.22
2023-01-13T11:37:30.810Z,7.28
2023-01-13T11:39:55.315Z,5.65
2023-01-13T11:42:21.151Z,4.53
2023-01-13T11:44:39.781Z,5.18
2023-01-13T11:46:41.737Z,2.85
2023-01-13T11:48:46.269Z,3.28
2023-01-13T11:51:05.959Z,2.53
2023-01-13T11:53:18.648Z,3.47
2023-01-13T11:55:52.357Z,5.13
2023-01-13T11:58:25.548Z,1.55
2023-01-13T12:00:53.614Z,4.40
2023-01-13T12:03:24.139Z,3.33
2023-01-13T12:06:21.541Z,1.23
2023-01-13T12:08:40.453Z,2.40
2023-01-13T12:10:44.776Z,2.22
2023-01-13T12:13:21.762Z,2.47
2023-01-13T12:15:47.887Z,2.45
2023-01-13T12:18:11.266Z,1.90
2023-01-13T12:20:33.079Z,2.83
2023-01-13T12:22:37.143Z,2.15
2023-01-13T12:24:54.495Z,1.35
2023-01-13T12:26:59.779Z,1.58
2023-01-13T12:29:06.677Z,2.00
2023-01-13T12:31:09.547Z,1.92
2023-01-13T12:33:25.794Z,1.45
2023-01-13T12:35:41.485Z,2.13
2023-01-13T12:38:21.161Z,2.10
2023-01-13T12:40:50.562Z,1.70
2023-01-13T12:43:35.723Z,1.33
2023-01-13T12:45:40.561Z,1.67
2023-01-13T12:47:48.596Z,2.13
2023-01-13T12:49:50.341Z,2.05
2023-01-13T12:51:51.721Z,2.30
2023-01-13T12:53:59.724Z,1.50
2023-01-13T12:56:27.226Z,1.10
2023-01-13T12:58:29.165Z,2.90
2023-01-13T13:00:35.183Z,1.95
2023-01-13T13:02:39.079Z,1.55
2023-01-13T13:04:53.007Z,4.00
2023-01-13T13:07:08.394Z,2.15
2023-01-13T13:09:39.418Z,1.83
2023-01-13T13:11:58.795Z,2.25
2023-01-13T13:14:02.050Z,0.98
2023-01-13T13:16:26.782Z,1.52
2023-01-13T13:18:28.889Z,0.63
2023-01-13T13:21:04.163Z,2.20
2023-01-13T13:23:38.157Z,2.28
2023-01-13T13:26:01.273Z,1.90
2023-01-13T13:28:16.728Z,1.13
2023-01-13T13:30:33.805Z,0.75
2023-01-13T13:32:47.638Z,4.10
2023-01-13T13:35:16.777Z,3.03
2023-01-13T13:38:00.757Z,1.27
2023-01-13T13:40:29.005Z,2.15
2023-01-13T13:42:39.250Z,1.85
2023-01-13T13:45:06.529Z,3.92
2023-01-13T13:47:08.173Z,2.13
2023-01-13T13:49:10.198Z,1.88
2023-01-13T13:51:39.261Z,1.38
2023-01-13T13:53:42.328Z,2.85
2023-01-13T13:55:54.645Z,1.63
2023-01-13T13:58:01.464Z,3.33
2023-01-13T14:00:18.888Z,1.77
2023-01-13T14:02:28.602Z,3.25
2023-01-13T14:04:36.958Z,3.05
2023-01-13T14:06:38.584Z,4.22
2023-01-13T14:08:46.133Z,4.10
2023-01-13T14:10:49.693Z,2.72
2023-01-13T14:12:52.373Z,2.03
2023-01-13T14:14:57.475Z,3.70
2023-01-13T14:16:59.160Z,2.95
2023-01-13T14:19:00.910Z,2.22
2023-01-13T14:21:20.406Z,3.30
2023-01-13T14:23:26.857Z,2.60
2023-01-13T14:25:39.788Z,1.98
2023-01-13T14:27:43.403Z,2.83
2023-01-13T14:29:45.514Z,3.28
2023-01-13T14:31:48.716Z,2.05
2023-01-13T14:33:59.840Z,2.42
2023-01-13T14:36:22.932Z,3.42
2023-01-13T14:38:24.497Z,1.27
2023-01-13T14:40:37.606Z,2.25
2023-01-13T14:42:41.822Z,4.03
2023-01-13T14:44:48.902Z,3.05
2023-01-13T14:46:50.970Z,2.70
2023-01-13T14:49:00.886Z,2.67
2023-01-13T14:51:05.840Z,2.33
2023-01-13T14:53:27.848Z,3.25
2023-01-13T14:55:37.633Z,2.88
2023-01-13T14:57:41.711Z,4.50
2023-01-13T14:59:46.197Z,2.30
2023-01-13T15:01:56.949Z,2.67
2023-01-13T15:04:24.705Z,2.78
2023-01-13T15:06:26.822Z,3.08
2023-01-13T15:08:35.019Z,3.60
2023-01-13T15:10:48.429Z,2.17
2023-01-13T15:12:52.519Z,3.95
2023-01-13T15:14:54.450Z,2.13
2023-01-13T15:16:56.759Z,5.03
2023-01-13T15:18:58.736Z,2.45
2023-01-13T15:21:03.167Z,3.53
2023-01-13T15:23:04.964Z,2.75
2023-01-13T15:25:07.202Z,4.03
2023-01-13T15:27:19.674Z,3.47
2023-01-13T15:29:22.553Z,1.85
2023-01-13T15:31:25.810Z,4.13
2023-01-13T15:33:27.785Z,1.33
2023-01-13T15:35:29.613Z,3.33
2023-01-13T15:37:31.214Z,1.77
2023-01-13T15:39:32.867Z,2.17
2023-01-13T15:41:52.742Z,2.13
2023-01-13T15:44:13.172Z,2.50
2023-01-13T15:46:39.040Z,2.60
2023-01-13T15:48:40.895Z,3.20
2023-01-13T15:50:43.601Z,4.60
2023-01-13T15:52:45.417Z,2.67
2023-01-13T15:54:47.231Z,3.25
2023-01-13T15:56:49.137Z,2.20
2023-01-13T15:58:51.079Z,1.95
2023-01-13T16:00:53.011Z,2.45
2023-01-13T16:02:54.684Z,2.63
2023-01-13T16:04:56.637Z,2.53
2023-01-13T16:06:59.368Z,2.65
2023-01-13T16:09:02.927Z,3.28
2023-01-13T16:11:05.221Z,1.92
2023-01-13T16:13:06.904Z,1.92
2023-01-13T16:15:09.832Z,2.20
2023-01-13T16:17:17.231Z,2.33
2023-01-13T16:19:18.926Z,2.58
2023-01-13T16:21:21.780Z,2.35
2023-01-13T16:23:23.437Z,2.47
2023-01-13T16:25:27.240Z,3.00
2023-01-13T16:27:28.769Z,1.67
2023-01-13T16:29:30.479Z,3.92
2023-01-13T16:31:33.858Z,4.55
2023-01-13T16:33:35.530Z,4.22
2023-01-13T16:35:37.187Z,1.05
2023-01-13T16:37:59.893Z,2.58
2023-01-13T16:40:02.618Z,2.88
2023-01-13T16:42:04.443Z,2.75
2023-01-13T16:44:06.326Z,3.28
2023-01-13T16:46:18.808Z,5.25
2023-01-13T16:48:21.084Z,4.57
2023-01-13T16:50:34.785Z,2.15
2023-01-13T16:52:36.285Z,2.08
2023-01-13T16:54:37.980Z,1.58
2023-01-13T16:56:39.793Z,2.35
2023-01-13T16:58:41.257Z,3.50
2023-01-13T17:00:43.242Z,1.77
2023-01-13T17:02:44.973Z,2.33
2023-01-13T17:04:46.985Z,3.28
2023-01-13T17:06:57.066Z,4.53
2023-01-13T17:09:19.731Z,2.67
2023-01-13T17:11:21.994Z,2.53
2023-01-13T17:13:24.436Z,1.83
2023-01-13T17:15:26.240Z,1.52
2023-01-13T17:17:28.365Z,2.22
2023-01-13T17:19:30.064Z,1.77
2023-01-13T17:21:31.506Z,1.70
2023-01-13T17:23:33.427Z,4.93
2023-01-13T17:25:35.074Z,4.00
2023-01-13T17:27:36.855Z,1.60
2023-01-13T17:29:38.836Z,2.58
2023-01-13T17:31:40.809Z,1.08
2023-01-13T17:33:42.307Z,3.45
2023-01-13T17:35:44.006Z,3.03
2023-01-13T17:37:45.830Z,3.50
2023-01-13T17:39:51.175Z,3.65
2023-01-13T17:41:55.809Z,5.85
2023-01-13T17:43:57.331Z,4.10
2023-01-13T17:45:59.108Z,3.63
2023-01-13T17:48:00.932Z,2.97
2023-01-13T17:50:04.106Z,3.85
2023-01-13T17:52:06.496Z,5.00
2023-01-13T17:54:12.135Z,4.72
2023-01-13T17:56:15.743Z,6.43
2023-01-13T17:58:17.218Z,3.65
2023-01-13T18:00:19.254Z,4.53
2023-01-13T18:02:20.971Z,2.10
2023-01-13T18:04:27.211Z,4.38
2023-01-13T18:06:29.169Z,4.85
2023-01-13T18:08:30.683Z,4.88
2023-01-13T18:10:36.062Z,3.92
2023-01-13T18:12:37.608Z,4.38
2023-01-13T18:14:39.417Z,3.00
2023-01-13T18:16:41.262Z,3.55
2023-01-13T18:18:47.497Z,4.00
2023-01-13T18:21:07.646Z,3.78
2023-01-13T18:23:38.568Z,4.03
2023-01-13T18:25:58.935Z,5.63
2023-01-13T18:28:03.920Z,3.78
2023-01-13T18:30:06.787Z,4.43
2023-01-13T18:32:08.973Z,10.50
2023-01-13T18:34:11.276Z,23.38
2023-01-13T18:36:13.099Z,32.63
2023-01-13T18:38:24.869Z,31.70
2023-01-13T18:40:26.549Z,20.88
2023-01-13T18:42:49.805Z,23.30
2023-01-13T18:44:52.616Z,12.60
2023-01-13T18:46:54.174Z,10.60
2023-01-13T18:48:58.186Z,9.40
2023-01-13T18:51:02.773Z,6.15
2023-01-13T18:53:04.325Z,5.13
2023-01-13T18:55:05.980Z,5.90
2023-01-13T18:57:08.202Z,4.45
2023-01-13T18:59:10.265Z,4.00
2023-01-13T19:01:11.950Z,3.40
2023-01-13T19:03:29.884Z,4.93
2023-01-13T19:05:32.340Z,3.13
2023-01-13T19:07:39.946Z,5.15
2023-01-13T19:09:42.319Z,3.72
2023-01-13T19:11:46.620Z,3.75
2023-01-13T19:13:49.010Z,4.55
2023-01-13T19:15:50.742Z,5.88
2023-01-13T19:17:52.316Z,4.88
2023-01-13T19:19:55.969Z,5.65
2023-01-13T19:21:57.644Z,6.35
2023-01-13T19:23:59.379Z,3.42
2023-01-13T19:26:07.471Z,4.10
2023-01-13T19:28:08.929Z,5.05
2023-01-13T19:30:11.166Z,4.25
2023-01-13T19:32:13.973Z,3.17
2023-01-13T19:34:15.921Z,5.03
2023-01-13T19:36:20.473Z,4.45
2023-01-13T19:38:22.998Z,5.13
2023-01-13T19:40:24.804Z,6.28
2023-01-13T19:42:45.374Z,4.40
2023-01-13T19:45:06.010Z,3.88
2023-01-13T19:47:07.828Z,4.78
2023-01-13T19:49:11.296Z,4.88
2023-01-13T19:51:14.491Z,7.97
2023-01-13T19:53:20.186Z,11.00
2023-01-13T19:55:22.320Z,12.93
2023-01-13T19:57:23.962Z,12.73
2023-01-13T19:59:29.283Z,12.27
2023-01-13T20:01:35.175Z,10.52
2023-01-13T20:03:37.690Z,8.23
2023-01-13T20:05:39.475Z,7.32
2023-01-13T20:07:40.978Z,7.57
2023-01-13T20:09:44.519Z,4.93
2023-01-13T20:11:48.730Z,5.13
2023-01-13T20:13:52.232Z,3.53
2023-01-13T20:15:53.810Z,5.25
2023-01-13T20:17:59.822Z,6.65
2023-01-13T20:20:01.956Z,4.80
2023-01-13T20:22:03.540Z,3.58
2023-01-13T20:24:06.388Z,4.28
2023-01-13T20:26:11.171Z,4.47
2023-01-13T20:28:12.952Z,4.85
2023-01-13T20:30:15.369Z,4.18
2023-01-13T20:32:17.037Z,3.88
2023-01-13T20:34:19.141Z,3.90
2023-01-13T20:36:27.821Z,4.10
2023-01-13T20:38:38.568Z,4.25
2023-01-13T20:40:40.139Z,3.90
2023-01-13T20:42:45.327Z,3.22
2023-01-13T20:44:47.037Z,5.18
2023-01-13T20:46:48.884Z,9.57
2023-01-13T20:48:50.524Z,10.98
2023-01-13T20:50:54.280Z,12.02
2023-01-13T20:52:55.847Z,8.63
2023-01-13T20:54:57.377Z,5.82
2023-01-13T20:57:02.281Z,6.40
2023-01-13T20:59:04.384Z,4.93
2023-01-13T21:01:06.611Z,3.95
2023-01-13T21:03:11.496Z,4.55
2023-01-13T21:05:13.563Z,5.45
2023-01-13T21:07:15.373Z,6.68
2023-01-13T21:09:17.128Z,4.10
2023-01-13T21:11:38.928Z,5.53
2023-01-13T21:13:59.979Z,3.15
2023-01-13T21:16:02.253Z,4.13
2023-01-13T21:18:22.642Z,4.25
2023-01-13T21:20:24.415Z,3.70
2023-01-13T21:22:26.595Z,5.90
2023-01-13T21:24:28.423Z,5.50
2023-01-13T21:26:31.251Z,4.28
2023-01-13T21:28:34.455Z,5.22
2023-01-13T21:30:37.562Z,4.68
2023-01-13T21:32:39.343Z,3.67
2023-01-13T21:34:40.928Z,5.63
2023-01-13T21:36:42.528Z,3.78
2023-01-13T21:38:51.497Z,5.78
2023-01-13T21:41:01.147Z,5.45
2023-01-13T21:43:24.471Z,3.70
2023-01-13T21:45:45.451Z,5.72
2023-01-13T21:47:50.734Z,4.07
2023-01-13T21:49:52.619Z,5.43
2023-01-13T21:51:54.192Z,7.00
2023-01-13T21:53:56.024Z,3.97
2023-01-13T21:55:57.897Z,2.90
2023-01-13T21:58:15.109Z,5.68
2023-01-13T22:00:19.259Z,6.40
2023-01-13T22:02:32.051Z,4.20
2023-01-13T22:04:33.810Z,6.90
2023-01-13T22:06:38.683Z,5.68
2023-01-13T22:08:40.517Z,4.13
2023-01-13T22:10:57.738Z,3.38
2023-01-13T22:13:21.323Z,3.90
2023-01-13T22:15:28.313Z,4.25
2023-01-13T22:17:31.778Z,4.80
2023-01-13T22:19:36.688Z,5.38
2023-01-13T22:21:38.394Z,4.78
2023-01-13T22:23:42.838Z,5.53
2023-01-13T22:25:44.483Z,3.50
2023-01-13T22:27:48.209Z,4.95
2023-01-13T22:29:53.652Z,3.88
2023-01-13T22:32:01.014Z,4.20
2023-01-13T22:34:02.684Z,3.15
2023-01-13T22:36:05.000Z,4.70
2023-01-13T22:38:06.681Z,3.58
2023-01-13T22:40:10.315Z,3.75
2023-01-13T22:42:12.083Z,3.55
2023-01-13T22:44:15.219Z,2.88
2023-01-13T22:46:17.307Z,3.50
2023-01-13T22:48:18.744Z,5.40
2023-01-13T22:50:22.668Z,3.78
2023-01-13T22:52:28.631Z,2.03
2023-01-13T22:54:30.332Z,2.53
2023-01-13T22:56:32.391Z,2.80
2023-01-13T22:58:34.040Z,4.03
2023-01-13T23:00:35.731Z,4.00
2023-01-13T23:02:40.032Z,3.03
2023-01-13T23:04:41.796Z,4.13
2023-01-13T23:06:43.473Z,1.90
2023-01-13T23:08:46.291Z,4.25
2023-01-13T23:10:47.779Z,2.92
2023-01-13T23:12:49.375Z,4.15
2023-01-13T23:14:50.919Z,4.13
2023-01-13T23:16:52.808Z,1.45
2023-01-13T23:18:54.414Z,3.65
2023-01-13T23:20:55.951Z,2.55
2023-01-13T23:23:00.105Z,2.35
2023-01-13T23:25:04.665Z,4.47
2023-01-13T23:27:06.235Z,3.70
2023-01-13T23:29:12.543Z,1.98
2023-01-13T23:31:19.408Z,5.43
2023-01-13T23:33:21.235Z,3.78
2023-01-13T23:35:22.844Z,3.83
2023-01-13T23:37:24.577Z,3.45
2023-01-13T23:39:26.274Z,3.33
2023-01-13T23:41:28.381Z,2.92
2023-01-13T23:43:29.832Z,6.95
2023-01-13T23:45:31.407Z,3.20
2023-01-13T23:47:33.041Z,8.50
2023-01-13T23:49:34.938Z,7.13
2023-01-13T23:51:36.659Z,9.18
2023-01-13T23:53:40.631Z,9.27
2023-01-13T23:55:42.120Z,6.03
2023-01-13T23:57:43.674Z,6.72
2023-01-13T23:59:45.639Z,5.22
